Vancleave, MS

4:32 PM CDT on July 25, 2017 (GMT -0500)
| | Change Station
Active Advisory: Flash Flood Watch Active Notice: Flash Flood Watch

Elev -9999 ft 0.00 °N, 0.00 °E | Updated 0 second ago

Partly Cloudy
Partly Cloudy
°F
Feels Like °F
N
Wind Variable Wind from North
Gusts mph

Today
High -- | Low -- °F
--% Chance of Precip.
Yesterday
High -- | Low -- °F
Precip. -- in
Pressure 30.11 in
Visibility 10.0 miles
Clouds Scattered Clouds 1200 ft
Dew Point Not available.
Humidity Not available.
Rainfall --
Snow Depth Not available.
6:08 AM 7:53 PM
Waxing Crescent, 8% visible
METAR KPQL 252053Z 29005KT 10SM SCT012 26/23 A3010 RMK AO2 RAE1954 SLP194 P0000 60032 T02610228 58017
Pressure 30.11 in
Visibility 10.0 miles
Clouds Scattered Clouds 1200 ft
Dew Point Not available.
Humidity Not available.
Rainfall --
Snow Depth Not available.
6:08 AM 7:53 PM
Waxing Crescent, 8% visible
METAR KPQL 252053Z 29005KT 10SM SCT012 26/23 A3010 RMK AO2 RAE1954 SLP194 P0000 60032 T02610228 58017

Get Your Daily Forecast Email!

Thanks for signing up!

Be on the lookout for a verification email in your inbox.

You'll start receiving severe weather alerts in your inbox..

×

10-Day Weather Forecast

Almanac

Astronomy

Jul. 25, 2017 Rise Set
Actual Time
Civil Twilight
Nautical Twilight
Astronomical Twilight
Moon
Length of Visible Light
Length of Day
Tomorrow will be .
, % of the Moon is Illuminated

Today's Extremes

State Highs State Lows

Community

WunderPhotos

Category 6

Welcome to Category 6. This is the collective home for Weather Underground's featured writeups by Dr. Jeff Masters (right), Bob Henson (left), Chris Burt, and other regular contributors.

Nearby

Air Quality

  Air Quality AQ Index Pollutant
Not available.

Snow Depth

Station Depth Elevation

Earthquake Activity

City Distance Mag. Time & Date
Minimum magnitude displayed is 2.5.

Coastal Water Temperatures

Place Temperature

Stations

Nearby Weather Stations

Station Location Temp. Windchill Dew Point Humidity Wind Precip. Elev Updated Type
                   

Watches & Warnings

Flash Flood Watch
Issued: 2:37 PM CDT Jul. 25, 2017 – National Weather Service

... Flash Flood Watch remains in effect until 7 PM CDT this
evening...

The Flash Flood Watch continues for

* portions of southeast Louisiana and Mississippi, including the
following areas, in southeast Louisiana, Washington. In
Mississippi, Hancock, Harrison, Jackson, Pearl River, Pike,
and Walthall.

* Until 7 PM CDT this evening

* additional rainfall accumulations of 1 to 2 inches are possible
over isolated locations.

* Impacts include flooding of low lying and poorly drained
areas, rises on area rivers and streams, possibly to flood
levels.

Precautionary/preparedness actions...

A Flash Flood Watch means that conditions may develop that lead
to flash flooding. Flash flooding is a very dangerous situation.

You should monitor later forecasts and be prepared to take action
should flash flood warnings be issued.



24/rr